Terminal Aerodrome Forecast
Issued by NWS

Home | Current Version | Previous Version | Text Only | Print | Product List | Glossary On
Versions: 1 2 3 4 5 6 7 8 9 10 11 12 13 14 15
000
FTUS43 KDVN 210500
TAFBRL
TAF
KBRL 210520Z 2106/2206 20005KT P6SM BKN250
     FM211100 22005KT P6SM SCT050 BKN100
     FM211600 24008KT P6SM VCSH BKN035
     FM211900 25010KT 4SM -TSRA BKN025CB
     FM212300 30010KT P6SM BKN040=

USA.gov is the U.S. government's official web portal to all federal, state and local government web resources and services.